createdAt,value
2023-03-15T00:05:51.094Z,0
2023-03-15T00:11:51.081Z,0
2023-03-15T00:17:51.064Z,0
2023-03-15T00:23:51.078Z,0
2023-03-15T00:29:51.049Z,0
2023-03-15T00:35:51.070Z,0
2023-03-15T00:41:51.074Z,0
2023-03-15T00:47:51.076Z,0
2023-03-15T00:53:51.060Z,0
2023-03-15T00:59:51.098Z,0
2023-03-15T01:05:51.171Z,0
2023-03-15T01:11:51.043Z,0
2023-03-15T01:17:51.086Z,0
2023-03-15T01:23:51.052Z,0
2023-03-15T01:29:51.031Z,0
2023-03-15T01:35:51.121Z,0
2023-03-15T01:41:51.043Z,0
2023-03-15T01:47:51.060Z,0
2023-03-15T01:53:51.083Z,0
2023-03-15T01:59:51.037Z,0
2023-03-15T02:05:51.206Z,0
2023-03-15T02:11:51.153Z,0
2023-03-15T02:17:51.060Z,0
2023-03-15T02:23:51.047Z,0
2023-03-15T02:29:51.123Z,0
2023-03-15T02:35:51.136Z,0
2023-03-15T02:41:51.042Z,0
2023-03-15T02:47:51.075Z,0
2023-03-15T02:53:51.062Z,0
2023-03-15T02:59:51.199Z,0
2023-03-15T03:05:51.074Z,0
2023-03-15T03:11:51.037Z,0
2023-03-15T03:17:51.055Z,0
2023-03-15T03:23:51.081Z,0
2023-03-15T03:29:51.018Z,0
2023-03-15T03:35:51.081Z,0
2023-03-15T03:41:51.038Z,0
2023-03-15T03:47:51.012Z,0
2023-03-15T03:53:51.026Z,0
2023-03-15T03:59:51.055Z,0
2023-03-15T04:05:51.050Z,0
2023-03-15T04:11:51.028Z,0
2023-03-15T04:17:51.063Z,0
2023-03-15T04:23:51.022Z,0
2023-03-15T04:29:51.021Z,0
2023-03-15T04:35:51.123Z,0
2023-03-15T04:41:51.034Z,0
2023-03-15T04:47:51.028Z,0
2023-03-15T04:53:51.062Z,0
2023-03-15T04:59:51.037Z,0
2023-03-15T05:05:51.023Z,0
2023-03-15T05:11:51.058Z,0
2023-03-15T05:17:51.154Z,0
2023-03-15T05:23:51.021Z,0
2023-03-15T05:29:51.115Z,0
2023-03-15T05:35:51.142Z,0
2023-03-15T05:41:51.006Z,0
2023-03-15T05:47:51.088Z,0
2023-03-15T05:53:51.025Z,0
2023-03-15T05:59:51.039Z,0
2023-03-15T06:05:51.045Z,0
2023-03-15T06:11:51.004Z,0
2023-03-15T06:17:51.000Z,0
2023-03-15T06:23:51.060Z,0
2023-03-15T06:29:51.044Z,0
2023-03-15T06:35:51.058Z,0
2023-03-15T06:41:51.150Z,0
2023-03-15T06:47:51.005Z,0
2023-03-15T06:53:51.004Z,0
2023-03-15T06:59:51.052Z,0
2023-03-15T07:05:51.035Z,0
2023-03-15T07:11:52.889Z,0
2023-03-15T07:17:51.033Z,0
2023-03-15T07:23:51.015Z,0
2023-03-15T07:29:51.074Z,0
2023-03-15T07:35:51.074Z,0
2023-03-15T07:41:51.004Z,0
2023-03-15T07:47:50.994Z,0
2023-03-15T07:53:51.021Z,0
2023-03-15T07:59:51.014Z,0
2023-03-15T08:05:50.982Z,0
2023-03-15T08:11:59.958Z,0
2023-03-15T08:17:51.065Z,0
2023-03-15T08:23:51.001Z,0
2023-03-15T08:29:53.309Z,0
2023-03-15T08:35:51.100Z,0
2023-03-15T08:41:51.046Z,0
2023-03-15T08:47:51.015Z,0
2023-03-15T08:53:50.983Z,0
2023-03-15T08:59:51.005Z,0
2023-03-15T09:05:51.013Z,0
2023-03-15T09:11:58.662Z,0.7
2023-03-15T09:17:51.034Z,1.8
2023-03-15T09:23:51.005Z,3.9
2023-03-15T09:29:50.987Z,5.7
2023-03-15T09:35:51.038Z,6.6
2023-03-15T09:41:51.004Z,6.9
2023-03-15T09:47:50.982Z,4.1
2023-03-15T09:53:50.996Z,4.6
2023-03-15T09:59:51.018Z,5.5
2023-03-15T10:05:51.000Z,5
2023-03-15T10:12:01.291Z,4.2
2023-03-15T10:17:51.023Z,3
2023-03-15T10:23:50.974Z,4.5
2023-03-15T10:29:51.102Z,6.6
2023-03-15T10:36:11.077Z,8.1
2023-03-15T10:41:50.983Z,10.1
2023-03-15T10:47:59.667Z,12.2
2023-03-15T10:53:51.007Z,10.6
2023-03-15T10:59:50.992Z,7.4
2023-03-15T11:06:01.273Z,4.2
2023-03-15T11:11:51.033Z,3.4
2023-03-15T11:17:51.004Z,6.4
2023-03-15T11:23:51.060Z,10.1
2023-03-15T11:29:51.024Z,7.3
2023-03-15T11:35:51.037Z,5.7
2023-03-15T11:41:50.987Z,4.9
2023-03-15T11:47:51.015Z,5.1
2023-03-15T11:53:50.994Z,5.7
2023-03-15T11:59:50.999Z,5.6
2023-03-15T12:05:51.128Z,5.9
2023-03-15T12:11:51.087Z,5.1
2023-03-15T12:17:51.034Z,5.1
2023-03-15T12:23:51.042Z,5.8
2023-03-15T12:29:51.003Z,5.9
2023-03-15T12:35:51.053Z,6.1
2023-03-15T12:41:51.012Z,5.4
2023-03-15T12:47:51.018Z,5.7
2023-03-15T12:53:50.989Z,4.8
2023-03-15T12:59:51.019Z,4.6
2023-03-15T13:06:02.784Z,3.9
2023-03-15T13:11:51.001Z,6.1
2023-03-15T13:17:51.019Z,5.5
2023-03-15T13:23:51.005Z,6.4
2023-03-15T13:29:51.029Z,4.8
2023-03-15T13:35:51.171Z,6.6
2023-03-15T13:41:50.985Z,6
2023-03-15T13:47:51.093Z,6.8
2023-03-15T13:53:51.037Z,6.6
2023-03-15T13:59:50.978Z,7.2
2023-03-15T14:05:51.028Z,6.3
2023-03-15T14:11:51.009Z,6.3
2023-03-15T14:17:51.011Z,7.7
2023-03-15T14:23:51.012Z,7.2
2023-03-15T14:29:51.041Z,7.7
2023-03-15T14:35:51.053Z,7.2
2023-03-15T14:41:50.989Z,6.5
2023-03-15T14:47:57.088Z,7.3
2023-03-15T14:53:51.001Z,7.8
2023-03-15T14:59:51.002Z,8.1
2023-03-15T15:05:51.035Z,7.6
2023-03-15T15:11:51.006Z,7.6
2023-03-15T15:17:51.021Z,7.8
2023-03-15T15:23:58.321Z,8.4
2023-03-15T15:29:50.980Z,7.9
2023-03-15T15:35:51.063Z,9
2023-03-15T15:41:51.066Z,8.7
2023-03-15T15:47:50.992Z,8
2023-03-15T15:53:50.973Z,7.4
2023-03-15T15:59:51.010Z,7.6
2023-03-15T16:05:50.982Z,8.2
2023-03-15T16:11:50.975Z,8.2
2023-03-15T16:17:51.015Z,8.4
2023-03-15T16:23:50.970Z,8.1
2023-03-15T16:29:50.986Z,7.9
2023-03-15T16:35:51.046Z,7.3
2023-03-15T16:41:50.982Z,6.9
2023-03-15T16:47:50.974Z,6.7
2023-03-15T16:53:51.784Z,6.9
2023-03-15T16:59:51.025Z,6.6
2023-03-15T17:05:50.998Z,6.6
2023-03-15T17:11:50.999Z,6.7
2023-03-15T17:17:50.984Z,6.4
2023-03-15T17:23:50.993Z,6.2
2023-03-15T17:29:51.023Z,6.3
2023-03-15T17:35:51.017Z,6.2
2023-03-15T17:41:50.998Z,6
2023-03-15T17:47:51.153Z,5.2
2023-03-15T17:53:50.991Z,5.3
2023-03-15T17:59:50.982Z,5.1
2023-03-15T18:05:51.070Z,4.8
2023-03-15T18:11:50.989Z,5.1
2023-03-15T18:17:50.981Z,5
2023-03-15T18:23:51.014Z,4.6
2023-03-15T18:29:50.989Z,4.2
2023-03-15T18:35:51.006Z,4.1
2023-03-15T18:41:51.053Z,4
2023-03-15T18:47:51.026Z,3.9
2023-03-15T18:53:50.990Z,3.9
2023-03-15T18:59:51.014Z,3.8
2023-03-15T19:05:50.956Z,3.9
2023-03-15T19:11:50.979Z,3.7
2023-03-15T19:17:51.022Z,3.8
2023-03-15T19:23:50.962Z,4.3
2023-03-15T19:29:51.000Z,4
2023-03-15T19:35:51.100Z,4
2023-03-15T19:41:50.981Z,3.6
2023-03-15T19:47:50.993Z,3.6
2023-03-15T19:53:50.983Z,3.7
2023-03-15T19:59:50.961Z,3.5
2023-03-15T20:05:50.996Z,3.2
2023-03-15T20:11:50.990Z,3.2
2023-03-15T20:17:50.987Z,3.3
2023-03-15T20:23:50.963Z,3.3
2023-03-15T20:30:01.306Z,3.2
2023-03-15T20:35:51.065Z,3.1
2023-03-15T20:41:50.960Z,3
2023-03-15T20:47:50.974Z,2.8
2023-03-15T20:53:50.971Z,2.7
2023-03-15T20:59:50.981Z,2.7
2023-03-15T21:05:50.991Z,2.4
2023-03-15T21:11:50.953Z,2.4
2023-03-15T21:17:50.963Z,2.4
2023-03-15T21:23:55.266Z,2.3
2023-03-15T21:29:50.954Z,1.9
2023-03-15T21:35:51.048Z,2.2
2023-03-15T21:41:50.978Z,1.9
2023-03-15T21:47:50.939Z,1.8
2023-03-15T21:53:50.925Z,1.7
2023-03-15T21:59:50.968Z,1.5
2023-03-15T22:05:50.943Z,1.4
2023-03-15T22:11:50.949Z,1.3
2023-03-15T22:17:51.005Z,1.1
2023-03-15T22:24:01.216Z,0.9
2023-03-15T22:29:50.950Z,0.7
2023-03-15T22:35:51.021Z,0.7
2023-03-15T22:41:50.953Z,0.6
2023-03-15T22:47:50.934Z,0.5
2023-03-15T22:53:50.977Z,0.4
2023-03-15T22:59:50.937Z,0.4
2023-03-15T23:05:50.944Z,0.3
2023-03-15T23:11:50.973Z,0.2
2023-03-15T23:17:50.928Z,0.2
2023-03-15T23:24:08.230Z,0.1
2023-03-15T23:29:55.327Z,0.2
2023-03-15T23:35:50.950Z,0.3
2023-03-15T23:41:50.956Z,0.1
2023-03-15T23:47:50.972Z,0.1
2023-03-15T23:53:50.944Z,0.1
2023-03-15T23:59:50.942Z,0.1
